N135R KFSM-KLIT
Flight info
| Callsign | N135R |
|---|---|
| Flight time | 0h 39m |
| Altitude | 7500 |
| Route | DIRECT |
| Aircraft | P28A/L-S/C |
Departure
| Time | 2026-04-23 00:10 |
|---|---|
| Airport | Fort Smith Regional Airport (KFSM) |
Arrival
| Time | 2026-04-23 00:50 |
|---|---|
| Airport | Bill & Hillary Clinton National Airport/Adams Field (KLIT) |
| Time | Latitude | Longitude | Altitude | Speed | Heading |
|---|---|---|---|---|---|
| 2026-04-22 23:53 | 35.33763 | -94.36864 | 448 ft | 0 kts | 33° |
| 2026-04-23 00:03 | 35.33774 | -94.36860 | 443 ft | 6 kts | 355° |
| 2026-04-23 00:03 | 35.33750 | -94.36885 | 445 ft | 8 kts | 178° |
| 2026-04-23 00:03 | 35.33689 | -94.36887 | 446 ft | 10 kts | 190° |
| 2026-04-23 00:03 | 35.33636 | -94.36953 | 440 ft | 12 kts | 238° |
| 2026-04-23 00:04 | 35.33610 | -94.37054 | 447 ft | 13 kts | 259° |
| 2026-04-23 00:04 | 35.33596 | -94.37161 | 449 ft | 13 kts | 260° |
| 2026-04-23 00:04 | 35.33582 | -94.37271 | 450 ft | 13 kts | 261° |
| 2026-04-23 00:04 | 35.33568 | -94.37384 | 452 ft | 14 kts | 260° |
| 2026-04-23 00:05 | 35.33552 | -94.37501 | 454 ft | 14 kts | 261° |
| 2026-04-23 00:05 | 35.33537 | -94.37624 | 455 ft | 15 kts | 260° |
| 2026-04-23 00:05 | 35.33520 | -94.37758 | 457 ft | 16 kts | 258° |
| 2026-04-23 00:05 | 35.33504 | -94.37897 | 459 ft | 17 kts | 261° |
| 2026-04-23 00:06 | 35.33486 | -94.38040 | 461 ft | 16 kts | 261° |
| 2026-04-23 00:06 | 35.33453 | -94.38135 | 462 ft | 8 kts | 204° |
| 2026-04-23 00:06 | 35.33448 | -94.38138 | 462 ft | 0 kts | 198° |
| 2026-04-23 00:09 | 35.33435 | -94.38140 | 463 ft | 8 kts | 179° |
| 2026-04-23 00:09 | 35.33369 | -94.38087 | 464 ft | 15 kts | 84° |
| 2026-04-23 00:09 | 35.33403 | -94.37820 | 459 ft | 60 kts | 82° |
| 2026-04-23 00:10 | 35.33482 | -94.37139 | 512 ft | 96 kts | 77° |
| 2026-04-23 00:10 | 35.33610 | -94.36319 | 811 ft | 95 kts | 79° |
| 2026-04-23 00:10 | 35.33718 | -94.35609 | 1274 ft | 82 kts | 77° |
| 2026-04-23 00:10 | 35.33872 | -94.34926 | 1589 ft | 79 kts | 79° |
| 2026-04-23 00:11 | 35.34003 | -94.34256 | 1883 ft | 77 kts | 101° |
| 2026-04-23 00:11 | 35.33671 | -94.33819 | 2130 ft | 74 kts | 161° |
| 2026-04-23 00:11 | 35.33369 | -94.33660 | 2345 ft | 68 kts | 158° |
| 2026-04-23 00:11 | 35.32875 | -94.33234 | 2716 ft | 66 kts | 128° |
| 2026-04-23 00:12 | 35.32784 | -94.32852 | 2862 ft | 74 kts | 108° |
| 2026-04-23 00:12 | 35.32730 | -94.32217 | 3123 ft | 73 kts | 108° |
| 2026-04-23 00:12 | 35.32622 | -94.31625 | 3397 ft | 71 kts | 116° |
| 2026-04-23 00:12 | 35.32462 | -94.31035 | 3645 ft | 70 kts | 119° |
| 2026-04-23 00:13 | 35.32300 | -94.30461 | 3854 ft | 78 kts | 118° |
| 2026-04-23 00:13 | 35.32097 | -94.29806 | 4088 ft | 86 kts | 118° |
| 2026-04-23 00:13 | 35.31868 | -94.29095 | 4330 ft | 92 kts | 119° |
| 2026-04-23 00:13 | 35.31440 | -94.28552 | 4573 ft | 91 kts | 158° |
| 2026-04-23 00:14 | 35.30897 | -94.28112 | 4831 ft | 98 kts | 139° |
| 2026-04-23 00:14 | 35.30580 | -94.27343 | 5077 ft | 104 kts | 116° |
| 2026-04-23 00:14 | 35.30317 | -94.26505 | 5326 ft | 107 kts | 116° |
| 2026-04-23 00:14 | 35.30066 | -94.25636 | 5573 ft | 109 kts | 115° |
| 2026-04-23 00:15 | 35.29819 | -94.24747 | 5828 ft | 111 kts | 114° |
| 2026-04-23 00:15 | 35.29576 | -94.23850 | 6080 ft | 111 kts | 114° |
| 2026-04-23 00:15 | 35.29334 | -94.22948 | 6333 ft | 112 kts | 113° |
| 2026-04-23 00:15 | 35.29093 | -94.22044 | 6574 ft | 112 kts | 114° |
| 2026-04-23 00:16 | 35.28852 | -94.21140 | 6806 ft | 112 kts | 112° |
| 2026-04-23 00:16 | 35.28612 | -94.20237 | 7039 ft | 112 kts | 114° |
| 2026-04-23 00:16 | 35.28372 | -94.19335 | 7273 ft | 111 kts | 113° |
| 2026-04-23 00:16 | 35.28132 | -94.18434 | 7478 ft | 115 kts | 113° |
| 2026-04-23 00:17 | 35.27860 | -94.17429 | 7492 ft | 132 kts | 112° |
| 2026-04-23 00:17 | 35.27562 | -94.16314 | 7497 ft | 142 kts | 111° |
| 2026-04-23 00:17 | 35.27248 | -94.15135 | 7497 ft | 148 kts | 112° |
| 2026-04-23 00:17 | 35.26923 | -94.13918 | 7495 ft | 152 kts | 111° |
| 2026-04-23 00:18 | 35.26593 | -94.12677 | 7498 ft | 154 kts | 111° |
| 2026-04-23 00:18 | 35.26259 | -94.11424 | 7500 ft | 155 kts | 111° |
| 2026-04-23 00:18 | 35.25924 | -94.10170 | 7502 ft | 155 kts | 111° |
| 2026-04-23 00:18 | 35.25589 | -94.08915 | 7502 ft | 155 kts | 112° |
| 2026-04-23 00:19 | 35.25257 | -94.07676 | 7502 ft | 155 kts | 112° |
| 2026-04-23 00:19 | 35.24922 | -94.06421 | 7504 ft | 155 kts | 111° |
| 2026-04-23 00:19 | 35.24585 | -94.05162 | 7503 ft | 156 kts | 112° |
| 2026-04-23 00:19 | 35.24248 | -94.03903 | 7504 ft | 156 kts | 111° |
| 2026-04-23 00:20 | 35.23911 | -94.02645 | 7506 ft | 155 kts | 111° |
| 2026-04-23 00:20 | 35.23571 | -94.01375 | 7507 ft | 155 kts | 112° |
| 2026-04-23 00:20 | 35.23240 | -94.00143 | 7507 ft | 155 kts | 112° |
| 2026-04-23 00:20 | 35.22906 | -93.98896 | 7507 ft | 154 kts | 112° |
| 2026-04-23 00:21 | 35.22571 | -93.97650 | 7509 ft | 154 kts | 112° |
| 2026-04-23 00:21 | 35.22236 | -93.96401 | 7510 ft | 155 kts | 112° |
| 2026-04-23 00:21 | 35.21900 | -93.95152 | 7511 ft | 155 kts | 111° |
| 2026-04-23 00:21 | 35.21566 | -93.93907 | 7508 ft | 153 kts | 111° |
| 2026-04-23 00:22 | 35.21232 | -93.92665 | 7508 ft | 154 kts | 111° |
| 2026-04-23 00:22 | 35.20896 | -93.91417 | 7508 ft | 155 kts | 111° |
| 2026-04-23 00:22 | 35.20559 | -93.90164 | 7507 ft | 155 kts | 112° |
| 2026-04-23 00:22 | 35.20219 | -93.88901 | 7506 ft | 155 kts | 112° |
| 2026-04-23 00:23 | 35.19879 | -93.87641 | 7508 ft | 156 kts | 112° |
| 2026-04-23 00:23 | 35.19540 | -93.86383 | 7508 ft | 156 kts | 112° |
| 2026-04-23 00:23 | 35.19202 | -93.85129 | 7508 ft | 156 kts | 111° |
| 2026-04-23 00:23 | 35.18862 | -93.83866 | 7510 ft | 156 kts | 112° |
| 2026-04-23 00:24 | 35.18520 | -93.82603 | 7502 ft | 157 kts | 111° |
| 2026-04-23 00:24 | 35.18180 | -93.81341 | 7506 ft | 157 kts | 112° |
| 2026-04-23 00:24 | 35.17839 | -93.80077 | 7507 ft | 157 kts | 112° |
| 2026-04-23 00:24 | 35.17495 | -93.78809 | 7501 ft | 156 kts | 111° |
| 2026-04-23 00:25 | 35.17160 | -93.77566 | 7502 ft | 156 kts | 112° |
| 2026-04-23 00:25 | 35.16818 | -93.76305 | 7501 ft | 155 kts | 112° |
| 2026-04-23 00:25 | 35.16478 | -93.75047 | 7503 ft | 156 kts | 111° |
| 2026-04-23 00:25 | 35.16137 | -93.73787 | 7504 ft | 156 kts | 112° |
| 2026-04-23 00:26 | 35.15798 | -93.72537 | 7505 ft | 156 kts | 111° |
| 2026-04-23 00:26 | 35.15457 | -93.71278 | 7507 ft | 156 kts | 111° |
| 2026-04-23 00:26 | 35.15116 | -93.70020 | 7507 ft | 157 kts | 111° |
| 2026-04-23 00:26 | 35.14772 | -93.68752 | 7508 ft | 157 kts | 111° |
| 2026-04-23 00:27 | 35.14428 | -93.67486 | 7506 ft | 157 kts | 112° |
| 2026-04-23 00:27 | 35.14084 | -93.66218 | 7507 ft | 157 kts | 112° |
| 2026-04-23 00:27 | 35.13740 | -93.64951 | 7505 ft | 157 kts | 112° |
| 2026-04-23 00:27 | 35.13397 | -93.63690 | 7504 ft | 156 kts | 112° |
| 2026-04-23 00:28 | 35.13055 | -93.62431 | 7504 ft | 156 kts | 111° |
| 2026-04-23 00:28 | 35.12713 | -93.61175 | 7505 ft | 156 kts | 111° |
| 2026-04-23 00:28 | 35.12371 | -93.59916 | 7505 ft | 156 kts | 111° |
| 2026-04-23 00:28 | 35.12027 | -93.58655 | 7504 ft | 156 kts | 111° |
| 2026-04-23 00:29 | 35.11686 | -93.57402 | 7505 ft | 156 kts | 112° |
| 2026-04-23 00:29 | 35.11344 | -93.56148 | 7503 ft | 155 kts | 112° |
| 2026-04-23 00:29 | 35.11002 | -93.54897 | 7504 ft | 155 kts | 112° |
| 2026-04-23 00:29 | 35.10662 | -93.53646 | 7504 ft | 155 kts | 112° |
| 2026-04-23 00:30 | 35.10320 | -93.52395 | 7505 ft | 155 kts | 112° |
| 2026-04-23 00:30 | 35.09982 | -93.51159 | 7505 ft | 155 kts | 111° |
| 2026-04-23 00:30 | 35.09637 | -93.49891 | 7510 ft | 155 kts | 112° |
| 2026-04-23 00:30 | 35.09295 | -93.48643 | 7508 ft | 155 kts | 112° |
| 2026-04-23 00:31 | 35.08958 | -93.47411 | 7503 ft | 155 kts | 111° |
| 2026-04-23 00:31 | 35.08619 | -93.46169 | 7504 ft | 154 kts | 112° |
| 2026-04-23 00:31 | 35.08279 | -93.44926 | 7504 ft | 154 kts | 113° |
| 2026-04-23 00:31 | 35.07937 | -93.43681 | 7505 ft | 155 kts | 112° |
| 2026-04-23 00:32 | 35.07596 | -93.42433 | 7504 ft | 155 kts | 112° |
| 2026-04-23 00:32 | 35.07254 | -93.41187 | 7503 ft | 154 kts | 111° |
| 2026-04-23 00:32 | 35.06914 | -93.39946 | 7503 ft | 154 kts | 111° |
| 2026-04-23 00:32 | 35.06574 | -93.38706 | 7504 ft | 154 kts | 112° |
| 2026-04-23 00:33 | 35.06233 | -93.37464 | 7505 ft | 155 kts | 111° |
| 2026-04-23 00:33 | 35.05889 | -93.36211 | 7505 ft | 155 kts | 113° |
| 2026-04-23 00:33 | 35.05550 | -93.34976 | 7505 ft | 155 kts | 112° |
| 2026-04-23 00:33 | 35.05207 | -93.33728 | 7508 ft | 156 kts | 113° |
| 2026-04-23 00:34 | 35.04863 | -93.32476 | 7506 ft | 155 kts | 113° |
| 2026-04-23 00:34 | 35.04520 | -93.31232 | 7507 ft | 154 kts | 111° |
| 2026-04-23 00:34 | 35.03848 | -93.28790 | 7505 ft | 155 kts | 111° |
| 2026-04-23 00:34 | 35.03165 | -93.26309 | 7509 ft | 155 kts | 112° |
| 2026-04-23 00:35 | 35.02476 | -93.23811 | 7505 ft | 155 kts | 112° |
| 2026-04-23 00:35 | 35.01793 | -93.21333 | 7503 ft | 154 kts | 113° |
| 2026-04-23 00:35 | 35.01108 | -93.18855 | 7509 ft | 155 kts | 112° |
| 2026-04-23 00:35 | 35.00419 | -93.16361 | 7508 ft | 154 kts | 111° |
| 2026-04-23 00:36 | 34.99735 | -93.13891 | 7514 ft | 154 kts | 112° |
| 2026-04-23 00:36 | 34.99044 | -93.11399 | 7515 ft | 156 kts | 112° |
| 2026-04-23 00:36 | 34.98349 | -93.08889 | 7520 ft | 157 kts | 111° |
| 2026-04-23 00:36 | 34.97646 | -93.06356 | 7518 ft | 157 kts | 111° |
| 2026-04-23 00:37 | 34.96946 | -93.03833 | 7518 ft | 157 kts | 112° |
| 2026-04-23 00:37 | 34.96247 | -93.01322 | 7518 ft | 156 kts | 112° |
| 2026-04-23 00:37 | 34.95551 | -92.98823 | 7518 ft | 156 kts | 111° |
| 2026-04-23 00:37 | 34.94851 | -92.96306 | 7516 ft | 157 kts | 112° |
| 2026-04-23 00:38 | 34.94158 | -92.93822 | 7515 ft | 158 kts | 112° |
| 2026-04-23 00:38 | 34.93448 | -92.91278 | 7515 ft | 158 kts | 111° |
| 2026-04-23 00:38 | 34.92742 | -92.88749 | 7522 ft | 158 kts | 111° |
| 2026-04-23 00:38 | 34.92033 | -92.86211 | 7522 ft | 159 kts | 112° |
| 2026-04-23 00:39 | 34.91323 | -92.83672 | 7521 ft | 158 kts | 112° |
| 2026-04-23 00:39 | 34.90611 | -92.81134 | 7506 ft | 160 kts | 111° |
| 2026-04-23 00:39 | 34.89898 | -92.78587 | 7506 ft | 158 kts | 111° |
| 2026-04-23 00:39 | 34.89190 | -92.76063 | 7506 ft | 158 kts | 112° |
| 2026-04-23 00:40 | 34.88479 | -92.73532 | 7504 ft | 158 kts | 113° |
| 2026-04-23 00:40 | 34.87769 | -92.71007 | 7505 ft | 157 kts | 112° |
| 2026-04-23 00:40 | 34.87062 | -92.68494 | 7503 ft | 157 kts | 111° |
| 2026-04-23 00:40 | 34.86358 | -92.65995 | 7503 ft | 157 kts | 110° |
| 2026-04-23 00:41 | 34.85625 | -92.63394 | 7270 ft | 166 kts | 112° |
| 2026-04-23 00:41 | 34.84873 | -92.60725 | 7035 ft | 167 kts | 111° |
| 2026-04-23 00:41 | 34.84120 | -92.58057 | 6802 ft | 166 kts | 111° |
| 2026-04-23 00:41 | 34.83370 | -92.55405 | 6564 ft | 165 kts | 112° |
| 2026-04-23 00:42 | 34.82622 | -92.52763 | 6320 ft | 165 kts | 111° |
| 2026-04-23 00:42 | 34.81966 | -92.50439 | 6099 ft | 164 kts | 112° |
| 2026-04-23 00:42 | 34.81594 | -92.49123 | 5920 ft | 166 kts | 112° |
| 2026-04-23 00:42 | 34.81269 | -92.47768 | 5719 ft | 167 kts | 105° |
| 2026-04-23 00:43 | 34.81161 | -92.45078 | 5346 ft | 170 kts | 94° |
| 2026-04-23 00:43 | 34.81134 | -92.42201 | 4950 ft | 170 kts | 93° |
| 2026-04-23 00:43 | 34.81126 | -92.39327 | 4552 ft | 170 kts | 94° |
| 2026-04-23 00:43 | 34.81134 | -92.36457 | 4152 ft | 170 kts | 94° |
| 2026-04-23 00:44 | 34.81157 | -92.33570 | 3609 ft | 171 kts | 94° |
| 2026-04-23 00:44 | 34.81187 | -92.31786 | 3127 ft | 154 kts | 94° |
| 2026-04-23 00:44 | 34.81196 | -92.30519 | 2740 ft | 146 kts | 98° |
| 2026-04-23 00:44 | 34.81031 | -92.29328 | 2364 ft | 141 kts | 110° |
| 2026-04-23 00:45 | 34.80737 | -92.28227 | 2150 ft | 130 kts | 114° |
| 2026-04-23 00:45 | 34.80461 | -92.27215 | 2017 ft | 123 kts | 113° |
| 2026-04-23 00:45 | 34.80169 | -92.26252 | 1886 ft | 118 kts | 118° |
| 2026-04-23 00:45 | 34.79870 | -92.25393 | 1734 ft | 100 kts | 118° |
| 2026-04-23 00:46 | 34.79574 | -92.24597 | 1592 ft | 116 kts | 121° |
| 2026-04-23 00:46 | 34.79166 | -92.23675 | 1600 ft | 133 kts | 124° |
| 2026-04-23 00:46 | 34.78665 | -92.22726 | 1742 ft | 131 kts | 130° |
| 2026-04-23 00:46 | 34.78080 | -92.21830 | 1770 ft | 139 kts | 133° |
| 2026-04-23 00:47 | 34.77521 | -92.20882 | 1922 ft | 137 kts | 128° |
| 2026-04-23 00:47 | 34.77045 | -92.19964 | 1838 ft | 116 kts | 126° |
| 2026-04-23 00:47 | 34.76649 | -92.19198 | 1654 ft | 97 kts | 127° |
| 2026-04-23 00:47 | 34.76352 | -92.18601 | 1550 ft | 68 kts | 127° |
| 2026-04-23 00:48 | 34.76093 | -92.18129 | 1371 ft | 67 kts | 131° |
| 2026-04-23 00:48 | 34.75791 | -92.17744 | 1227 ft | 61 kts | 161° |
| 2026-04-23 00:48 | 34.75374 | -92.17859 | 1070 ft | 69 kts | 197° |
| 2026-04-23 00:48 | 34.75014 | -92.18164 | 916 ft | 61 kts | 221° |
| 2026-04-23 00:49 | 34.74732 | -92.18564 | 727 ft | 64 kts | 222° |
| 2026-04-23 00:49 | 34.74434 | -92.18948 | 625 ft | 60 kts | 219° |
| 2026-04-23 00:49 | 34.74127 | -92.19325 | 509 ft | 62 kts | 220° |
| 2026-04-23 00:49 | 34.73833 | -92.19704 | 408 ft | 62 kts | 224° |
| 2026-04-23 00:50 | 34.73534 | -92.20088 | 308 ft | 62 kts | 224° |
| 2026-04-23 00:50 | 34.73269 | -92.20433 | 264 ft | 46 kts | 224° |
| 2026-04-23 00:50 | 34.73085 | -92.20669 | 263 ft | 32 kts | 226° |
| 2026-04-23 00:50 | 34.72948 | -92.20840 | 260 ft | 25 kts | 227° |
| 2026-04-23 00:51 | 34.72844 | -92.20996 | 260 ft | 23 kts | 240° |
| 2026-04-23 00:51 | 34.72794 | -92.21171 | 260 ft | 15 kts | 278° |
| 2026-04-23 00:51 | 34.72799 | -92.21193 | 261 ft | 0 kts | 288° |